Time;durP1;ratioP1;P1;durP2;ratioP2;P2;SDS_P1;SDS_P2;PMS_P1;PMS_P2;Temp;Humidity;BMP_temperature;BMP_pressure;BME280_temperature;BME280_humidity;BME280_pressure;Samples;Min_cycle;Max_cycle;Signal;HPM_P1;HPM_P2
2023/01/20 00:01:13;;;;;;;31.60;9.00;;;;;;;8.01;100.00;98826.23;109885;1275;23333;-61
2023/01/20 00:03:40;;;;;;;;;;;;;;;8.01;100.00;98821.80;109874;1275;22414;-61
2023/01/20 00:06:07;;;;;;;28.60;8.60;;;;;;;8.02;100.00;98821.80;109740;1281;124926;-61
2023/01/20 00:08:34;;;;;;;27.10;8.90;;;;;;;8.03;100.00;98821.36;109836;1275;22221;-61
2023/01/20 00:11:05;;;;;;;26.90;9.50;;;;;;;8.03;100.00;98822.29;109716;1275;140998;-62
2023/01/20 00:13:35;;;;;;;31.80;9.00;;;;;;;8.03;100.00;98825.33;109863;1275;22947;-61
2023/01/20 00:16:06;;;;;;;28.00;9.10;;;;;;;8.03;100.00;98826.09;109820;1279;22311;-61
2023/01/20 00:18:33;;;;;;;31.00;8.80;;;;;;;8.03;100.00;98829.73;109731;1282;138434;-61
2023/01/20 00:21:08;;;;;;;29.10;9.00;;;;;;;8.02;100.00;98826.02;109875;1280;23334;-61
2023/01/20 00:23:35;;;;;;;32.00;9.10;;;;;;;8.02;100.00;98826.58;109752;1276;138404;-62
2023/01/20 00:26:06;;;;;;;28.30;9.00;;;;;;;8.01;100.00;98830.09;109902;1275;22788;-61
2023/01/20 00:28:33;;;;;;;26.40;9.00;;;;;;;8.03;100.00;98838.19;109855;1281;22320;-61
2023/01/20 00:31:20;;;;;;;28.80;8.90;;;;;;;8.03;100.00;98835.20;109778;1275;140018;-61
2023/01/20 00:33:47;;;;;;;29.50;9.00;;;;;;;8.03;100.00;98830.76;109852;1275;22205;-61
2023/01/20 00:36:15;;;;;;;28.00;8.10;;;;;;;8.01;100.00;98833.08;109737;1276;139285;-61
2023/01/20 00:38:41;;;;;;;30.30;8.80;;;;;;;8.03;100.00;98834.72;109839;1279;22205;-61
2023/01/20 00:41:08;;;;;;;27.20;9.00;;;;;;;8.02;100.00;98839.80;109723;1281;138701;-61
2023/01/20 00:43:35;;;;;;;32.70;8.70;;;;;;;7.99;100.00;98840.23;109869;1274;22217;-61
2023/01/20 00:46:02;;;;;;;;;;;;;;;8.01;100.00;98845.66;109878;1281;22436;-61
2023/01/20 00:48:29;;;;;;;24.90;8.60;;;;;;;8.02;100.00;98844.20;109744;1281;124850;-61
2023/01/20 00:50:56;;;;;;;;;;;;;;;8.02;100.00;98849.36;109944;1281;22440;-61
2023/01/20 00:53:22;;;;;;;29.80;9.70;;;;;;;8.02;100.00;98847.48;109772;1282;124634;-60
2023/01/20 00:55:49;;;;;;;;;;;;;;;8.01;100.00;98842.94;109852;1281;22598;-61
2023/01/20 00:58:16;;;;;;;22.90;7.60;;;;;;;7.96;100.00;98842.23;109846;1281;22276;-61
2023/01/20 01:00:45;;;;;;;;;;;;;;;7.92;100.00;98834.73;109796;1281;140223;-61
2023/01/20 01:03:11;;;;;;;28.30;8.70;;;;;;;7.89;100.00;98826.89;109891;1278;22180;-61
2023/01/20 01:05:38;;;;;;;26.70;7.00;;;;;;;7.84;100.00;98823.65;109731;1282;139471;-61
2023/01/20 01:08:05;;;;;;;26.00;8.20;;;;;;;7.84;100.00;98826.83;109885;1282;22207;-61
2023/01/20 01:10:32;;;;;;;;;;;;;;;7.81;100.00;98824.36;109888;1281;22408;-61
2023/01/20 01:12:59;;;;;;;30.80;8.30;;;;;;;7.78;100.00;98825.27;109737;1275;126526;-61
2023/01/20 01:15:26;;;;;;;47.00;9.20;;;;;;;7.76;100.00;98819.19;109854;1281;22389;-61
2023/01/20 01:17:53;;;;;;;25.00;7.20;;;;;;;7.75;100.00;98822.59;109716;1275;138718;-61
2023/01/20 01:20:20;;;;;;;28.30;8.20;;;;;;;7.74;100.00;98828.16;109844;1281;22504;-61
2023/01/20 01:22:47;;;;;;;26.90;8.00;;;;;;;7.75;100.00;98835.71;109735;1275;139017;-61
2023/01/20 01:25:13;;;;;;;;;;;;;;;7.75;100.00;98840.20;109916;1275;23803;-62
2023/01/20 01:27:41;;;;;;;26.10;7.90;;;;;;;7.74;100.00;98837.48;109844;1281;22200;-61
2023/01/20 01:30:08;;;;;;;21.80;8.20;;;;;;;7.75;100.00;98842.77;109711;1275;138841;-61
2023/01/20 01:32:35;;;;;;;36.20;10.60;;;;;;;7.77;100.00;98849.67;109859;1276;23237;-60
2023/01/20 01:35:01;;;;;;;31.30;8.70;;;;;;;7.78;100.00;98849.35;109736;1281;139555;-61
2023/01/20 01:37:28;;;;;;;;;;;;;;;7.80;100.00;98849.74;109846;1278;22516;-61
2023/01/20 01:39:55;;;;;;;31.20;8.90;;;;;;;7.80;100.00;98850.11;109879;1281;22472;-61
2023/01/20 01:42:23;;;;;;;30.10;7.80;;;;;;;7.79;100.00;98847.79;109730;1281;139293;-61
2023/01/20 01:45:16;;;;;;;29.00;7.20;;;;;;;7.79;100.00;98840.46;109879;1275;22331;-60
2023/01/20 01:47:43;;;;;;;37.70;8.60;;;;;;;7.76;100.00;98840.50;109708;1281;139534;-61
2023/01/20 01:50:12;;;;;;;26.00;7.50;;;;;;;7.74;100.00;98838.03;109805;1276;22229;-61
2023/01/20 01:52:40;;;;;;;31.50;10.00;;;;;;;7.70;100.00;98837.23;109607;1281;138702;-61
2023/01/20 01:55:07;;;;;;;24.00;7.70;;;;;;;7.67;100.00;98841.27;109849;1275;22517;-61
2023/01/20 01:57:34;;;;;;;26.50;8.30;;;;;;;7.66;100.00;98843.40;109694;1278;23420;-61
2023/01/20 02:00:02;;;;;;;23.40;7.40;;;;;;;7.64;100.00;98840.59;109712;1282;138482;-61
2023/01/20 02:02:38;;;;;;;29.90;7.70;;;;;;;7.62;100.00;98836.08;109775;1280;23434;-61
2023/01/20 02:05:05;;;;;;;26.30;8.00;;;;;;;7.59;100.00;98840.63;109766;1279;139158;-61
2023/01/20 02:07:32;;;;;;;22.70;8.10;;;;;;;7.52;100.00;98842.79;109866;1281;22928;-61
2023/01/20 02:09:59;;;;;;;;;;;;;;;7.51;100.00;98842.50;109748;1278;23278;-61
2023/01/20 02:12:26;;;;;;;19.80;6.70;;;;;;;7.48;100.00;98838.67;109765;1281;124856;-61
2023/01/20 02:14:53;;;;;;;;;;;;;;;7.43;100.00;98844.10;109875;1281;23181;-61
2023/01/20 02:17:19;;;;;;;24.20;7.80;;;;;;;7.38;100.00;98849.02;109771;1275;125329;-61
2023/01/20 02:20:08;;;;;;;18.90;7.40;;;;;;;7.35;100.00;98848.78;109919;1266;23031;-61
2023/01/20 02:22:36;;;;;;;22.10;7.60;;;;;;;7.35;100.00;98848.34;109873;1281;22331;-61
2023/01/20 02:25:37;;;;;;;26.20;7.50;;;;;;;7.32;100.00;98849.14;109865;1281;22386;-61
2023/01/20 02:28:13;;;;;;;23.80;6.40;;;;;;;7.32;100.00;98851.95;109779;1281;22202;-61
2023/01/20 02:30:42;;;;;;;24.80;7.60;;;;;;;7.29;100.00;98862.80;109759;1274;138684;-61
2023/01/20 02:33:14;;;;;;;18.60;6.70;;;;;;;7.27;100.00;98861.20;109828;1281;22305;-61
2023/01/20 02:35:45;;;;;;;17.20;6.90;;;;;;;7.24;100.00;98865.16;109723;1275;138961;-61
2023/01/20 02:38:28;;;;;;;30.80;8.00;;;;;;;7.22;100.00;98866.06;109746;1281;23292;-61
2023/01/20 02:41:01;;;;;;;20.50;6.60;;;;;;;7.20;100.00;98866.12;109765;1281;138443;-62
2023/01/20 02:43:46;;;;;;;23.80;7.20;;;;;;;7.19;100.00;98875.46;109794;1281;22176;-62
2023/01/20 02:46:30;;;;;;;27.10;6.90;;;;;;;7.16;100.00;98877.86;109803;1279;22337;-62
2023/01/20 02:49:04;;;;;;;28.30;8.30;;;;;;;7.11;100.00;98881.41;109673;1279;138681;-62
2023/01/20 02:51:35;;;;;;;27.30;8.40;;;;;;;7.07;100.00;98880.65;109800;1282;23311;-62
2023/01/20 02:54:04;;;;;;;24.00;7.10;;;;;;;7.06;100.00;98880.23;109631;1279;138880;-62
2023/01/20 02:56:31;;;;;;;19.10;6.50;;;;;;;7.06;100.00;98883.27;109796;1280;23024;-62
2023/01/20 02:59:00;;;;;;;24.50;6.40;;;;;;;7.06;100.00;98886.40;109644;1282;139159;-62
2023/01/20 03:01:30;;;;;;;27.50;7.60;;;;;;;7.04;100.00;98891.48;109810;1281;22381;-62
2023/01/20 03:03:58;;;;;;;23.50;6.70;;;;;;;7.02;100.00;98889.17;109836;1281;22155;-62
2023/01/20 03:06:27;;;;;;;26.20;7.50;;;;;;;7.00;100.00;98878.90;109722;1281;139058;-62
2023/01/20 03:08:54;;;;;;;23.50;7.50;;;;;;;7.03;100.00;98888.80;109739;1281;22441;-62
2023/01/20 03:11:21;;;;;;;29.80;8.40;;;;;;;7.01;100.00;98893.06;109753;1281;138452;-62
2023/01/20 03:14:00;;;;;;;19.90;6.50;;;;;;;7.02;100.00;98901.09;109863;1282;22911;-62
2023/01/20 03:16:27;;;;;;;24.10;6.60;;;;;;;7.02;100.00;98903.68;109830;1281;22210;-62
2023/01/20 03:18:54;;;;;;;24.30;7.20;;;;;;;7.01;100.00;98904.21;109728;1281;138550;-62
2023/01/20 03:21:20;;;;;;;;;;;;;;;6.99;100.00;98907.48;109845;1276;22433;-62
2023/01/20 03:23:52;;;;;;;20.30;6.60;;;;;;;6.99;100.00;98910.78;109736;1281;125283;-62
2023/01/20 03:26:19;;;;;;;21.00;7.40;;;;;;;6.98;100.00;98914.56;109879;1282;23036;-62
2023/01/20 03:28:47;;;;;;;22.10;6.40;;;;;;;6.98;100.00;98923.77;109720;1282;138244;-62
2023/01/20 03:31:19;;;;;;;17.60;6.10;;;;;;;7.00;100.00;98925.91;109892;1281;22171;-62
2023/01/20 03:33:47;;;;;;;19.90;6.60;;;;;;;7.01;100.00;98914.66;109865;1281;22164;-62
2023/01/20 03:36:14;;;;;;;20.60;7.20;;;;;;;7.03;100.00;98917.45;109744;1282;138912;-62
2023/01/20 03:38:41;;;;;;;;;;;;;;;7.03;100.00;98921.48;109787;1281;22436;-62
2023/01/20 03:41:29;;;;;;;24.00;7.60;;;;;;;7.02;100.00;98932.92;106020;1282;125535;-60
2023/01/20 03:44:19;;;;;;;20.20;7.60;;;;;;;6.97;100.00;98931.50;105388;1279;22575;-61
2023/01/20 03:46:51;;;;;;;22.50;7.30;;;;;;;6.93;100.00;98925.80;105245;1278;139599;-61
2023/01/20 03:49:24;;;;;;;21.70;7.00;;;;;;;6.91;100.00;98921.73;105295;1276;22536;-61
2023/01/20 03:52:03;;;;;;;29.40;7.80;;;;;;;6.86;100.00;98917.21;105356;1278;22586;-61
2023/01/20 03:54:33;;;;;;;23.70;7.10;;;;;;;6.82;100.00;98915.90;109771;1281;139063;-61
2023/01/20 03:57:05;;;;;;;21.00;7.70;;;;;;;6.80;100.00;98922.52;109848;1282;22200;-61
2023/01/20 03:59:33;;;;;;;19.20;6.40;;;;;;;6.75;100.00;98926.85;109697;1282;138754;-61
2023/01/20 04:02:04;;;;;;;22.10;7.20;;;;;;;6.74;100.00;98933.17;109881;1281;22411;-62
2023/01/20 04:04:33;;;;;;;26.90;8.60;;;;;;;6.74;100.00;98931.08;109816;1281;23291;-61
2023/01/20 04:06:59;;;;;;;28.20;7.50;;;;;;;6.73;100.00;98925.97;109638;1282;138542;-62
2023/01/20 04:09:28;;;;;;;24.80;6.50;;;;;;;6.73;100.00;98928.61;109822;1281;22197;-61
2023/01/20 04:11:55;;;;;;;23.30;6.40;;;;;;;6.72;100.00;98934.21;109646;1281;138807;-62
2023/01/20 04:14:22;;;;;;;22.10;6.30;;;;;;;6.71;100.00;98947.90;109833;1282;22402;-61
2023/01/20 04:16:51;;;;;;;;;;;;;;;6.70;100.00;98955.63;109805;1281;139336;-62
2023/01/20 04:19:18;;;;;;;18.30;6.90;;;;;;;6.71;100.00;98959.05;109848;1281;22326;-61
2023/01/20 04:21:48;;;;;;;20.00;6.60;;;;;;;6.72;100.00;98965.52;109868;1281;22252;-61
2023/01/20 04:24:44;;;;;;;19.50;6.60;;;;;;;6.74;100.00;98971.08;109736;1281;138216;-62
2023/01/20 04:27:11;;;;;;;23.90;9.80;;;;;;;6.73;100.00;98991.15;109860;1282;22870;-62
2023/01/20 04:29:37;;;;;;;23.10;8.90;;;;;;;6.73;100.00;98996.90;109783;1281;138722;-62
2023/01/20 04:32:04;;;;;;;;;;;;;;;6.74;100.00;98991.80;109884;1281;22442;-61
2023/01/20 04:34:31;;;;;;;20.90;9.20;;;;;;;6.74;100.00;98982.06;109844;1280;22410;-61
2023/01/20 04:36:58;;;;;;;;;;;;;;;6.73;100.00;98984.27;109735;1276;138897;-62
2023/01/20 04:39:24;;;;;;;21.30;6.50;;;;;;;6.72;100.00;98989.56;109859;1282;22445;-62
2023/01/20 04:41:51;;;;;;;16.20;7.20;;;;;;;6.68;100.00;98988.98;109748;1281;139907;-61
2023/01/20 04:44:18;;;;;;;;;;;;;;;6.66;100.00;98989.61;109851;1281;22485;-61
2023/01/20 04:46:46;;;;;;;16.60;6.30;;;;;;;6.65;100.00;98991.97;109747;1281;124675;-61
2023/01/20 04:49:13;;;;;;;18.40;6.50;;;;;;;6.64;100.00;98993.42;109870;1281;22298;-61
2023/01/20 04:51:40;;;;;;;20.80;6.60;;;;;;;6.61;100.00;98994.09;109843;1279;22359;-62
2023/01/20 04:54:06;;;;;;;23.30;7.60;;;;;;;6.58;100.00;98997.02;109737;1282;138171;-61
2023/01/20 04:56:33;;;;;;;;;;;;;;;6.55;100.00;98999.66;109881;1281;22454;-62
2023/01/20 04:59:00;;;;;;;18.10;7.20;;;;;;;6.52;100.00;99010.64;109760;1276;125547;-62
2023/01/20 05:01:26;;;;;;;20.30;7.30;;;;;;;6.52;100.00;99019.56;109899;1276;22340;-61
2023/01/20 05:03:53;;;;;;;20.20;7.10;;;;;;;6.49;100.00;99021.00;109882;1281;22807;-62
2023/01/20 05:06:20;;;;;;;28.10;6.90;;;;;;;6.47;100.00;99027.95;109718;1282;140021;-62
2023/01/20 05:08:47;;;;;;;14.10;6.30;;;;;;;6.46;100.00;99025.42;109832;1279;22240;-61
2023/01/20 05:11:13;;;;;;;28.60;7.80;;;;;;;6.44;100.00;99021.23;109689;1281;140056;-62
2023/01/20 05:13:40;;;;;;;22.90;8.00;;;;;;;6.43;100.00;99017.73;109851;1282;22270;-62
2023/01/20 05:16:07;;;;;;;;;;;;;;;6.41;100.00;99018.15;109873;1281;23255;-62
2023/01/20 05:18:34;;;;;;;17.90;7.30;;;;;;;6.40;100.00;99025.96;109742;1281;124542;-62
2023/01/20 05:21:02;;;;;;;20.80;6.70;;;;;;;6.39;100.00;99036.13;109832;1281;22203;-62
2023/01/20 05:23:29;;;;;;;21.30;6.90;;;;;;;6.38;100.00;99045.67;109752;1273;139106;-62
2023/01/20 05:25:56;;;;;;;;;;;;;;;6.37;100.00;99048.66;109910;1281;22418;-62
2023/01/20 05:28:22;;;;;;;19.30;6.60;;;;;;;6.36;100.00;99049.48;109851;1279;22438;-62
2023/01/20 05:30:49;;;;;;;17.90;6.40;;;;;;;6.36;100.00;99055.38;109724;1281;139151;-61
2023/01/20 05:33:16;;;;;;;18.10;5.80;;;;;;;6.37;100.00;99055.11;109819;1281;23567;-61
2023/01/20 05:35:43;;;;;;;20.30;6.80;;;;;;;6.36;100.00;99052.79;109747;1279;139611;-61
2023/01/20 05:38:10;;;;;;;26.80;7.10;;;;;;;6.36;100.00;99051.54;109842;1281;22224;-62
2023/01/20 05:40:36;;;;;;;21.60;6.50;;;;;;;6.36;100.00;99051.01;109857;1281;22322;-61
2023/01/20 05:43:03;;;;;;;18.10;6.70;;;;;;;6.36;100.00;99048.94;109896;1278;22206;-61
2023/01/20 05:45:31;;;;;;;19.90;6.50;;;;;;;6.36;100.00;99053.71;109853;1279;22216;-62
2023/01/20 05:47:58;;;;;;;22.30;6.50;;;;;;;6.37;100.00;99061.35;109712;1281;137981;-61
2023/01/20 05:50:25;;;;;;;17.90;7.10;;;;;;;6.37;100.00;99072.06;109850;1275;22190;-61
2023/01/20 05:52:52;;;;;;;15.20;7.10;;;;;;;6.34;100.00;99070.56;109709;1276;138867;-61
2023/01/20 05:55:19;;;;;;;;;;;;;;;6.32;100.00;99070.96;109878;1278;22977;-61
2023/01/20 05:57:46;;;;;;;23.00;6.80;;;;;;;6.32;100.00;99067.34;109850;1276;22213;-61
2023/01/20 06:00:13;;;;;;;20.40;7.70;;;;;;;6.31;100.00;99067.59;109732;1281;139901;-61
2023/01/20 06:02:40;;;;;;;15.50;7.10;;;;;;;6.29;100.00;99067.59;109876;1281;23428;-61
2023/01/20 06:05:07;;;;;;;19.10;7.50;;;;;;;6.27;100.00;99065.50;109723;1280;138679;-62
2023/01/20 06:07:34;;;;;;;21.00;6.70;;;;;;;6.27;100.00;99059.98;109854;1281;22181;-62
2023/01/20 06:10:01;;;;;;;;;;;;;;;6.23;100.00;99056.34;109864;1281;22513;-62
2023/01/20 06:12:28;;;;;;;16.80;6.90;;;;;;;6.28;100.00;99070.23;109785;1279;124706;-61
2023/01/20 06:14:54;;;;;;;21.90;6.60;;;;;;;6.28;100.00;99078.13;109799;1281;22399;-61
2023/01/20 06:17:21;;;;;;;17.30;6.00;;;;;;;6.29;100.00;99081.88;109750;1275;138431;-61
2023/01/20 06:19:48;;;;;;;20.50;6.00;;;;;;;6.27;100.00;99093.48;109857;1278;22326;-62
2023/01/20 06:22:15;;;;;;;18.80;7.00;;;;;;;6.27;100.00;99090.82;109791;1282;22199;-61
2023/01/20 06:24:41;;;;;;;;;;;;;;;6.26;100.00;99090.16;109757;1282;138789;-61
2023/01/20 06:27:08;;;;;;;15.40;6.40;;;;;;;6.24;100.00;99088.98;109846;1276;22888;-61
2023/01/20 06:29:35;;;;;;;18.80;7.50;;;;;;;6.25;100.00;99100.13;109755;1280;139070;-61
2023/01/20 06:32:02;;;;;;;;;;;;;;;6.24;100.00;99100.65;109885;1281;22514;-61
2023/01/20 06:34:29;;;;;;;20.80;8.10;;;;;;;6.25;100.00;99102.13;109834;1281;22188;-61
2023/01/20 06:36:56;;;;;;;;;;;;;;;6.24;100.00;99100.60;109758;1279;138961;-61
2023/01/20 06:39:22;;;;;;;17.70;7.90;;;;;;;6.26;100.00;99098.10;109831;1281;22235;-61
2023/01/20 06:41:49;;;;;;;19.10;7.20;;;;;;;6.25;100.00;99100.41;109712;1277;138702;-61
2023/01/20 06:44:16;;;;;;;23.80;9.00;;;;;;;6.25;100.00;99102.50;109886;1276;22184;-61
2023/01/20 06:46:43;;;;;;;20.80;7.30;;;;;;;6.25;100.00;99108.78;109716;1275;139206;-61
2023/01/20 06:49:13;;;;;;;21.90;8.10;;;;;;;6.25;100.00;99114.41;109841;1281;22386;-62
2023/01/20 06:51:40;;;;;;;20.40;6.90;;;;;;;6.24;100.00;99107.59;109873;1281;23254;-61
2023/01/20 06:54:07;;;;;;;14.80;6.60;;;;;;;6.24;100.00;99104.27;109772;1281;138902;-61
2023/01/20 06:56:34;;;;;;;;;;;;;;;6.23;100.00;99112.53;109867;1279;22610;-61
2023/01/20 06:59:01;;;;;;;17.70;7.30;;;;;;;6.22;100.00;99120.20;109776;1280;125210;-61
2023/01/20 07:01:28;;;;;;;;;;;;;;;6.23;100.00;99124.23;109921;1281;23106;-61
2023/01/20 07:03:55;;;;;;;22.30;8.20;;;;;;;6.21;100.00;99129.53;109912;1280;23169;-61
2023/01/20 07:06:21;;;;;;;;;;;;;;;6.20;100.00;99133.54;109810;1281;139646;-61
2023/01/20 07:08:48;;;;;;;18.20;7.50;;;;;;;6.19;100.00;99130.91;109896;1281;23427;-61
2023/01/20 07:11:15;;;;;;;;;;;;;;;6.18;100.00;99133.66;109792;1281;139044;-61
2023/01/20 07:13:42;;;;;;;19.90;9.90;;;;;;;6.18;100.00;99133.13;109856;1282;22245;-61
2023/01/20 07:16:09;;;;;;;25.60;8.90;;;;;;;6.16;100.00;99136.65;109887;1281;23235;-61
2023/01/20 07:18:39;;;;;;;20.50;9.70;;;;;;;6.15;100.00;99145.92;109758;1281;139307;-61
2023/01/20 07:21:06;;;;;;;;;;;;;;;6.15;100.00;99147.29;109892;1274;22408;-61
2023/01/20 07:23:32;;;;;;;23.80;11.40;;;;;;;6.14;100.00;99142.10;109768;1276;125452;-61
2023/01/20 07:26:00;;;;;;;24.20;11.90;;;;;;;6.14;100.00;99134.74;109940;1280;22244;-62
2023/01/20 07:28:27;;;;;;;31.30;12.60;;;;;;;6.15;100.00;99137.92;109847;1267;22183;-61
2023/01/20 07:30:54;;;;;;;27.70;10.70;;;;;;;6.17;100.00;99137.64;109762;1266;138931;-61
2023/01/20 07:33:21;;;;;;;23.10;8.70;;;;;;;6.18;100.00;99133.83;109884;1281;23400;-61
2023/01/20 07:35:52;;;;;;;26.20;8.80;;;;;;;6.20;100.00;99137.48;109766;1281;139115;-61
2023/01/20 07:38:19;;;;;;;20.60;8.40;;;;;;;6.22;100.00;99133.94;109877;1281;22228;-61
2023/01/20 07:40:45;;;;;;;;;;;;;;;6.23;100.00;99132.38;106719;1281;138693;-60
2023/01/20 07:43:12;;;;;;;29.10;9.90;;;;;;;6.23;100.00;99134.84;105452;1281;25364;-60
2023/01/20 07:45:39;;;;;;;22.40;11.00;;;;;;;6.23;100.00;99145.06;105319;1277;22543;-60
2023/01/20 07:48:06;;;;;;;;;;;;;;;6.23;100.00;99146.02;105260;1281;138565;-60
2023/01/20 07:50:34;;;;;;;20.40;9.80;;;;;;;6.24;100.00;99147.55;105394;1281;22791;-61
2023/01/20 07:53:01;;;;;;;29.30;11.80;;;;;;;6.22;100.00;99145.89;105318;1277;138554;-60
2023/01/20 07:55:28;;;;;;;28.90;14.10;;;;;;;6.23;100.00;99161.02;105333;1281;23795;-60
2023/01/20 07:57:55;;;;;;;;;;;;;;;6.22;100.00;99166.67;105361;1280;22927;-60
2023/01/20 08:00:21;;;;;;;26.10;10.70;;;;;;;6.24;100.00;99171.69;105268;1276;124540;-60
2023/01/20 08:02:48;;;;;;;18.70;9.60;;;;;;;6.25;100.00;99175.50;105323;1281;25020;-61
2023/01/20 08:05:15;;;;;;;;;;;;;;;6.26;100.00;99175.20;105231;1277;139535;-61
2023/01/20 08:07:42;;;;;;;28.70;11.80;;;;;;;6.27;100.00;99174.30;105372;1281;22875;-61
2023/01/20 08:10:09;;;;;;;25.20;9.50;;;;;;;6.27;100.00;99177.62;105368;1274;23228;-60
2023/01/20 08:12:36;;;;;;;30.50;12.50;;;;;;;6.28;100.00;99171.36;105288;1277;139776;-61
2023/01/20 08:15:03;;;;;;;24.10;10.90;;;;;;;6.29;100.00;99175.71;105372;1275;22540;-61
2023/01/20 08:17:30;;;;;;;21.90;9.40;;;;;;;6.30;100.00;99176.98;109689;1281;138873;-61
2023/01/20 08:19:57;;;;;;;25.90;10.70;;;;;;;6.33;100.00;99176.45;109865;1280;22483;-61
2023/01/20 08:22:24;;;;;;;22.50;10.80;;;;;;;6.34;100.00;99174.41;109849;1282;22190;-61
2023/01/20 08:24:51;;;;;;;23.10;10.70;;;;;;;6.37;100.00;99176.34;109806;1281;138712;-61
2023/01/20 08:27:18;;;;;;;28.70;11.40;;;;;;;6.40;100.00;99176.48;109843;1281;23337;-62
2023/01/20 08:29:45;;;;;;;24.90;9.30;;;;;;;6.45;100.00;99175.31;109740;1273;141028;-62
2023/01/20 08:32:12;;;;;;;;;;;;;;;6.48;100.00;99167.98;109901;1275;23163;-62
2023/01/20 08:34:38;;;;;;;26.60;8.80;;;;;;;6.51;100.00;99164.08;109888;1281;22303;-62
2023/01/20 08:37:05;;;;;;;;;;;;;;;6.56;100.00;99171.50;109829;1281;137953;-62
2023/01/20 08:39:32;;;;;;;23.20;10.10;;;;;;;6.61;100.00;99177.56;109892;1281;22194;-62
2023/01/20 08:41:58;;;;;;;31.90;10.20;;;;;;;6.64;100.00;99174.14;109841;1281;138568;-61
2023/01/20 08:44:26;;;;;;;15.00;7.70;;;;;;;6.71;100.00;99172.60;109898;1279;22964;-62
2023/01/20 08:46:56;;;;;;;21.90;9.40;;;;;;;6.77;100.00;99171.09;109785;1281;138332;-62
2023/01/20 08:49:24;;;;;;;19.30;9.40;;;;;;;6.82;100.00;99170.09;109896;1281;23215;-62
2023/01/20 08:54:39;;;;;;;25.40;9.20;;;;;;;6.91;100.00;99162.86;102570;1308;546229;-61
2023/01/20 08:57:06;;;;;;;14.10;8.10;;;;;;;6.94;100.00;99162.90;104764;1284;27554;-61
2023/01/20 08:59:33;;;;;;;20.60;9.10;;;;;;;7.00;100.00;99164.58;104687;1290;139097;-61
2023/01/20 09:02:00;;;;;;;;;;;;;;;7.04;100.00;99169.33;104710;1291;24251;-61
2023/01/20 09:04:27;;;;;;;22.00;8.90;;;;;;;7.07;100.00;99169.73;104768;1283;24269;-61
2023/01/20 09:06:53;;;;;;;21.60;8.70;;;;;;;7.09;100.00;99168.80;104603;1284;139849;-61
2023/01/20 09:09:21;;;;;;;18.80;9.00;;;;;;;7.11;100.00;99163.97;104755;1281;155842;-61
2023/01/20 09:11:50;;;;;;;19.10;8.10;;;;;;;7.16;100.00;99167.08;104823;1287;137848;-61
2023/01/20 09:14:18;;;;;;;29.80;11.00;;;;;;;7.19;100.00;99167.36;104961;1287;22614;-61
2023/01/20 09:16:45;;;;;;;24.70;10.50;;;;;;;7.21;100.00;99168.87;109260;1280;138020;-62
2023/01/20 09:19:12;;;;;;;;;;;;;;;7.25;100.00;99166.68;109409;1285;22420;-62
2023/01/20 09:21:38;;;;;;;19.50;9.30;;;;;;;7.29;100.00;99166.65;109409;1287;22327;-61
2023/01/20 09:24:05;;;;;;;;;;;;;;;7.32;100.00;99166.45;109332;1287;138019;-61
2023/01/20 09:26:37;;;;;;;20.50;7.90;;;;;;;7.36;100.00;99162.34;109481;1287;22194;-61
2023/01/20 09:29:09;;;;;;;22.30;8.50;;;;;;;7.40;100.00;99165.64;109585;1284;139363;-62
2023/01/20 09:31:37;;;;;;;18.40;8.10;;;;;;;7.43;100.00;99163.25;109657;1285;22241;-61
2023/01/20 09:34:04;;;;;;;21.20;8.40;;;;;;;7.47;100.00;99169.46;109614;1285;22284;-62
2023/01/20 09:36:31;;;;;;;17.80;8.70;;;;;;;7.52;100.00;99173.65;109505;1286;138884;-62
2023/01/20 09:44:48;;;;;;;16.80;7.60;;;;;;;7.68;100.00;99169.34;108980;1286;22453;-61
2023/01/20 09:47:27;;;;;;;17.80;7.20;;;;;;;7.73;100.00;99176.21;109019;1292;139656;-62
2023/01/20 09:53:14;;;;;;;21.10;8.50;;;;;;;7.79;100.00;99176.96;108969;1292;138225;-61
2023/01/20 09:55:46;;;;;;;20.30;8.80;;;;;;;7.79;100.00;99177.81;109155;1292;22275;-62
2023/01/20 09:58:39;;;;;;;16.20;7.50;;;;;;;7.82;100.00;99178.84;109189;1292;23122;-62
2023/01/20 10:01:33;;;;;;;19.10;8.70;;;;;;;7.87;100.00;99178.27;108885;1287;22953;-61
2023/01/20 10:04:23;;;;;;;19.50;8.60;;;;;;;7.91;100.00;99186.67;109103;1292;22304;-61
2023/01/20 10:06:57;;;;;;;22.20;8.60;;;;;;;7.97;100.00;99192.30;108929;1285;139152;-62
2023/01/20 10:09:41;;;;;;;18.30;7.40;;;;;;;8.01;100.00;99190.67;109050;1292;22316;-61
2023/01/20 10:12:11;;;;;;;15.00;7.80;;;;;;;8.05;100.00;99188.09;109057;1285;139482;-62
2023/01/20 10:14:44;;;;;;;15.20;7.30;;;;;;;8.09;100.00;99182.86;109247;1291;22269;-62
2023/01/20 10:17:31;;;;;;;16.80;8.80;;;;;;;8.12;100.00;99184.59;109016;1290;138459;-62
2023/01/20 10:20:02;;;;;;;14.50;8.30;;;;;;;8.15;100.00;99180.94;109200;1284;22423;-62
2023/01/20 10:22:47;;;;;;;15.80;10.20;;;;;;;8.18;100.00;99173.71;109705;1284;22429;-62
2023/01/20 10:25:21;;;;;;;13.00;7.60;;;;;;;8.23;100.00;99174.33;109582;1284;22231;-62
2023/01/20 10:27:55;;;;;;;20.80;8.40;;;;;;;8.27;100.00;99171.77;109593;1284;22409;-60
2023/01/20 10:30:28;;;;;;;21.50;7.70;;;;;;;8.31;100.00;99171.50;109589;1285;138493;-60
2023/01/20 10:33:04;;;;;;;16.10;8.50;;;;;;;8.35;100.00;99170.45;109591;1280;23586;-60
2023/01/20 10:35:34;;;;;;;17.10;8.70;;;;;;;8.39;100.00;99174.49;109552;1282;138718;-60
2023/01/20 10:38:02;;;;;;;16.90;7.90;;;;;;;8.42;100.00;99178.23;109860;1281;22271;-61
2023/01/20 10:40:42;;;;;;;14.50;8.00;;;;;;;8.46;100.00;99174.65;109674;1281;22291;-60
2023/01/20 10:43:13;;;;;;;20.50;9.80;;;;;;;8.52;100.00;99171.57;109711;1281;138512;-60
2023/01/20 10:45:59;;;;;;;14.70;8.20;;;;;;;8.57;100.00;99168.21;109781;1276;22342;-60
2023/01/20 10:48:45;;;;;;;19.10;9.00;;;;;;;8.62;100.00;99174.80;109783;1279;138655;-60
2023/01/20 10:51:29;;;;;;;25.00;9.10;;;;;;;8.67;100.00;99172.67;109899;1281;22217;-60
2023/01/20 10:53:59;;;;;;;19.70;8.80;;;;;;;8.73;100.00;99172.25;109683;1281;139944;-60
2023/01/20 10:56:40;;;;;;;16.20;7.60;;;;;;;8.78;100.00;99167.10;109840;1281;22208;-60
2023/01/20 10:59:15;;;;;;;23.90;9.50;;;;;;;8.82;100.00;99169.20;109687;1278;139654;-60
2023/01/20 11:01:44;;;;;;;12.50;7.60;;;;;;;8.88;100.00;99171.06;109754;1277;22240;-60
2023/01/20 11:04:16;;;;;;;20.30;8.10;;;;;;;8.92;100.00;99171.94;109745;1282;22203;-61
2023/01/20 11:06:43;;;;;;;15.50;7.40;;;;;;;8.97;100.00;99171.73;109713;1280;138110;-60
2023/01/20 11:09:14;;;;;;;;;;;;;;;9.00;100.00;99177.05;109868;1275;23247;-60
2023/01/20 11:11:41;;;;;;;18.00;8.90;;;;;;;9.04;100.00;99176.88;109677;1281;124344;-61
2023/01/20 11:14:08;;;;;;;;;;;;;;;9.06;100.00;99178.05;109833;1275;22534;-61
2023/01/20 11:16:34;;;;;;;17.60;8.30;;;;;;;9.10;99.99;99187.42;109821;1276;23112;-60
2023/01/20 11:19:02;;;;;;;;;;;;;;;9.13;99.99;99190.48;109663;1276;138590;-60
2023/01/20 11:21:31;;;;;;;16.50;7.30;;;;;;;9.16;99.91;99190.31;109846;1281;22256;-61
2023/01/20 11:23:58;;;;;;;15.00;6.90;;;;;;;9.21;99.83;99191.73;109651;1282;138595;-60
2023/01/20 11:26:25;;;;;;;16.60;7.90;;;;;;;9.25;99.66;99194.48;109868;1278;23391;-61
2023/01/20 11:29:09;;;;;;;16.30;7.80;;;;;;;9.30;99.76;99191.21;109740;1282;138108;-60
2023/01/20 11:31:37;;;;;;;15.60;7.60;;;;;;;9.37;99.57;99190.52;109849;1278;22949;-62
2023/01/20 11:34:19;;;;;;;18.70;8.50;;;;;;;9.41;98.97;99186.64;109769;1282;22240;-61
2023/01/20 11:36:46;;;;;;;16.70;8.30;;;;;;;9.47;98.91;99198.39;109745;1282;137720;-61
2023/01/20 11:39:24;;;;;;;15.40;8.00;;;;;;;9.51;98.65;99199.40;109586;1282;22581;-61
2023/01/20 11:42:08;;;;;;;21.90;7.30;;;;;;;9.56;98.53;99200.95;109714;1281;138650;-62
2023/01/20 11:44:49;;;;;;;18.90;8.30;;;;;;;9.61;98.19;99194.75;109883;1282;23097;-62
2023/01/20 11:47:37;;;;;;;16.00;7.30;;;;;;;9.67;97.88;99198.10;109758;1281;138286;-62